sensor_id;sensor_type;location;lat;lon;timestamp;pressure;altitude;pressure_sealevel;temperature;humidity
68075;BME280;54864;52.002;5.468;2023-07-29T00:00:25;100559.69;;;20.01;81.01
68075;BME280;54864;52.002;5.468;2023-07-29T00:01:28;100562.38;;;20.01;81.01
68075;BME280;54864;52.002;5.468;2023-07-29T00:02:32;100552.91;;;19.97;81.10
68075;BME280;54864;52.002;5.468;2023-07-29T00:03:33;100552.22;;;19.95;81.00
68075;BME280;54864;52.002;5.468;2023-07-29T00:04:37;100550.38;;;19.95;80.98
68075;BME280;54864;52.002;5.468;2023-07-29T00:05:40;100545.44;;;19.91;80.78
68075;BME280;54864;52.002;5.468;2023-07-29T00:06:41;100544.47;;;19.92;80.89
68075;BME280;54864;52.002;5.468;2023-07-29T00:07:43;100539.94;;;19.92;80.97
68075;BME280;54864;52.002;5.468;2023-07-29T00:08:43;100545.84;;;19.86;80.89
68075;BME280;54864;52.002;5.468;2023-07-29T00:09:45;100540.91;;;19.82;81.48
68075;BME280;54864;52.002;5.468;2023-07-29T00:10:46;100538.94;;;19.84;81.34
68075;BME280;54864;52.002;5.468;2023-07-29T00:11:51;100535.69;;;19.80;81.91
68075;BME280;54864;52.002;5.468;2023-07-29T00:12:52;100531.91;;;19.83;81.91
68075;BME280;54864;52.002;5.468;2023-07-29T00:13:53;100533.59;;;19.84;81.83
68075;BME280;54864;52.002;5.468;2023-07-29T00:14:56;100531.91;;;19.83;81.67
68075;BME280;54864;52.002;5.468;2023-07-29T00:15:58;100524.84;;;19.82;82.17
68075;BME280;54864;52.002;5.468;2023-07-29T00:16:58;100523.59;;;19.86;81.96
68075;BME280;54864;52.002;5.468;2023-07-29T00:17:59;100520.06;;;19.85;81.51
68075;BME280;54864;52.002;5.468;2023-07-29T00:19:02;100520.34;;;19.82;82.00
68075;BME280;54864;52.002;5.468;2023-07-29T00:20:04;100517.13;;;19.88;81.48
68075;BME280;54864;52.002;5.468;2023-07-29T00:21:07;100522.88;;;19.84;81.44
68075;BME280;54864;52.002;5.468;2023-07-29T00:22:08;100512.59;;;19.79;82.39
68075;BME280;54864;52.002;5.468;2023-07-29T00:23:09;100514.16;;;19.82;82.04
68075;BME280;54864;52.002;5.468;2023-07-29T00:24:10;100515.56;;;19.86;82.16
68075;BME280;54864;52.002;5.468;2023-07-29T00:25:12;100508.25;;;19.88;82.05
68075;BME280;54864;52.002;5.468;2023-07-29T00:26:13;100501.06;;;19.88;82.33
68075;BME280;54864;52.002;5.468;2023-07-29T00:27:14;100504.28;;;19.82;82.44
68075;BME280;54864;52.002;5.468;2023-07-29T00:28:15;100497.53;;;19.78;82.50
68075;BME280;54864;52.002;5.468;2023-07-29T00:29:17;100493.28;;;19.76;82.92
68075;BME280;54864;52.002;5.468;2023-07-29T00:30:19;100495.25;;;19.74;82.88
68075;BME280;54864;52.002;5.468;2023-07-29T00:31:22;100510.19;;;19.76;82.67
68075;BME280;54864;52.002;5.468;2023-07-29T00:32:22;100523.00;;;19.73;82.54
68075;BME280;54864;52.002;5.468;2023-07-29T00:33:24;100522.84;;;19.74;82.39
68075;BME280;54864;52.002;5.468;2023-07-29T00:34:25;100529.75;;;19.77;82.00
68075;BME280;54864;52.002;5.468;2023-07-29T00:35:27;100534.13;;;19.78;81.78
68075;BME280;54864;52.002;5.468;2023-07-29T00:36:28;100522.44;;;19.79;82.00
68075;BME280;54864;52.002;5.468;2023-07-29T00:37:30;100522.31;;;19.80;81.80
68075;BME280;54864;52.002;5.468;2023-07-29T00:38:34;100518.53;;;19.83;81.52
68075;BME280;54864;52.002;5.468;2023-07-29T00:39:38;100516.13;;;19.80;81.44
68075;BME280;54864;52.002;5.468;2023-07-29T00:40:39;100525.00;;;19.80;81.41
68075;BME280;54864;52.002;5.468;2023-07-29T00:41:41;100520.22;;;19.84;81.03
68075;BME280;54864;52.002;5.468;2023-07-29T00:42:42;100524.72;;;19.83;80.80
68075;BME280;54864;52.002;5.468;2023-07-29T00:43:44;100529.78;;;19.86;81.02
68075;BME280;54864;52.002;5.468;2023-07-29T00:44:44;100534.16;;;19.87;80.87
68075;BME280;54864;52.002;5.468;2023-07-29T00:45:48;100524.00;;;19.81;81.00
68075;BME280;54864;52.002;5.468;2023-07-29T00:46:50;100539.47;;;19.78;81.24
68075;BME280;54864;52.002;5.468;2023-07-29T00:47:53;100535.81;;;19.79;81.04
68075;BME280;54864;52.002;5.468;2023-07-29T00:48:55;100536.38;;;19.73;81.30
68075;BME280;54864;52.002;5.468;2023-07-29T00:49:57;100533.81;;;19.71;81.59
68075;BME280;54864;52.002;5.468;2023-07-29T00:50:58;100537.47;;;19.70;81.86
68075;BME280;54864;52.002;5.468;2023-07-29T00:52:00;100529.31;;;19.72;82.04
68075;BME280;54864;52.002;5.468;2023-07-29T00:53:01;100522.56;;;19.68;82.64
68075;BME280;54864;52.002;5.468;2023-07-29T00:54:02;100526.91;;;19.69;82.64
68075;BME280;54864;52.002;5.468;2023-07-29T00:55:05;100524.97;;;19.71;82.50
68075;BME280;54864;52.002;5.468;2023-07-29T00:56:06;100524.50;;;19.66;83.15
68075;BME280;54864;52.002;5.468;2023-07-29T00:57:10;100521.56;;;19.69;82.87
68075;BME280;54864;52.002;5.468;2023-07-29T00:58:12;100518.19;;;19.67;83.19
68075;BME280;54864;52.002;5.468;2023-07-29T00:59:14;100504.41;;;19.71;82.77
68075;BME280;54864;52.002;5.468;2023-07-29T01:00:15;100510.47;;;19.73;82.49
68075;BME280;54864;52.002;5.468;2023-07-29T01:01:18;100503.16;;;19.75;82.34
68075;BME280;54864;52.002;5.468;2023-07-29T01:02:20;100500.34;;;19.77;82.27
68075;BME280;54864;52.002;5.468;2023-07-29T01:03:22;100497.78;;;19.75;82.34
68075;BME280;54864;52.002;5.468;2023-07-29T01:04:23;100493.28;;;19.76;81.96
68075;BME280;54864;52.002;5.468;2023-07-29T01:05:30;100502.44;;;19.73;82.06
68075;BME280;54864;52.002;5.468;2023-07-29T01:06:39;100497.09;;;19.73;81.76
68075;BME280;54864;52.002;5.468;2023-07-29T01:07:47;100496.81;;;19.76;81.63
68075;BME280;54864;52.002;5.468;2023-07-29T01:08:55;100496.94;;;19.75;81.15
68075;BME280;54864;52.002;5.468;2023-07-29T01:10:02;100500.44;;;19.66;81.90
68075;BME280;54864;52.002;5.468;2023-07-29T01:11:14;100508.34;;;19.67;81.70
68075;BME280;54864;52.002;5.468;2023-07-29T01:12:24;100505.34;;;19.60;81.43
68075;BME280;54864;52.002;5.468;2023-07-29T01:13:44;100516.06;;;19.60;81.48
68075;BME280;54864;52.002;5.468;2023-07-29T01:14:55;100514.94;;;19.63;81.14
68075;BME280;54864;52.002;5.468;2023-07-29T01:16:01;100513.50;;;19.59;81.18
68075;BME280;54864;52.002;5.468;2023-07-29T01:17:09;100525.06;;;19.59;81.38
68075;BME280;54864;52.002;5.468;2023-07-29T01:18:20;100526.63;;;19.62;81.42
68075;BME280;54864;52.002;5.468;2023-07-29T01:19:42;100522.38;;;19.59;81.75
68075;BME280;54864;52.002;5.468;2023-07-29T01:20:43;100522.19;;;19.51;82.77
68075;BME280;54864;52.002;5.468;2023-07-29T01:21:46;100517.91;;;19.49;82.93
68075;BME280;54864;52.002;5.468;2023-07-29T01:22:47;100521.09;;;19.54;83.08
68075;BME280;54864;52.002;5.468;2023-07-29T01:23:53;100518.66;;;19.51;83.35
68075;BME280;54864;52.002;5.468;2023-07-29T01:24:59;100517.03;;;19.59;83.38
68075;BME280;54864;52.002;5.468;2023-07-29T01:26:00;100517.03;;;19.59;83.31
68075;BME280;54864;52.002;5.468;2023-07-29T01:27:03;100516.31;;;19.57;83.70
68075;BME280;54864;52.002;5.468;2023-07-29T01:28:05;100508.16;;;19.59;83.61
68075;BME280;54864;52.002;5.468;2023-07-29T01:29:07;100516.34;;;19.67;83.47
68075;BME280;54864;52.002;5.468;2023-07-29T01:30:08;100514.53;;;19.68;83.32
68075;BME280;54864;52.002;5.468;2023-07-29T01:31:13;100517.19;;;19.68;83.73
68075;BME280;54864;52.002;5.468;2023-07-29T01:32:23;100518.91;;;19.69;84.01
68075;BME280;54864;52.002;5.468;2023-07-29T01:33:42;100513.97;;;19.74;83.65
68075;BME280;54864;52.002;5.468;2023-07-29T01:34:53;100513.84;;;19.75;83.82
68075;BME280;54864;52.002;5.468;2023-07-29T01:36:02;100511.75;;;19.79;84.25
68075;BME280;54864;52.002;5.468;2023-07-29T01:37:08;100508.09;;;19.80;84.11
68075;BME280;54864;52.002;5.468;2023-07-29T01:38:18;100514.00;;;19.83;84.25
68075;BME280;54864;52.002;5.468;2023-07-29T01:39:23;100506.53;;;19.77;84.97
68075;BME280;54864;52.002;5.468;2023-07-29T01:40:27;100507.81;;;19.83;84.75
68075;BME280;54864;52.002;5.468;2023-07-29T01:41:31;100494.56;;;19.81;84.83
68075;BME280;54864;52.002;5.468;2023-07-29T01:42:33;100504.84;;;19.76;85.27
68075;BME280;54864;52.002;5.468;2023-07-29T01:43:37;100511.06;;;19.86;84.84
68075;BME280;54864;52.002;5.468;2023-07-29T01:44:43;100507.13;;;19.90;84.82
68075;BME280;54864;52.002;5.468;2023-07-29T01:45:45;100504.59;;;19.89;85.15
68075;BME280;54864;52.002;5.468;2023-07-29T01:46:47;100510.38;;;19.94;84.87
68075;BME280;54864;52.002;5.468;2023-07-29T01:47:49;100510.09;;;19.97;84.57
68075;BME280;54864;52.002;5.468;2023-07-29T01:48:49;100502.50;;;19.92;85.12
68075;BME280;54864;52.002;5.468;2023-07-29T01:49:51;100504.72;;;19.87;85.33
68075;BME280;54864;52.002;5.468;2023-07-29T01:50:52;100496.69;;;19.87;85.26
68075;BME280;54864;52.002;5.468;2023-07-29T01:51:54;100502.91;;;19.98;84.90
68075;BME280;54864;52.002;5.468;2023-07-29T01:52:55;100501.22;;;19.97;84.80
68075;BME280;54864;52.002;5.468;2023-07-29T01:53:57;100499.97;;;20.01;84.76
68075;BME280;54864;52.002;5.468;2023-07-29T01:55:00;100496.16;;;20.03;84.67
68075;BME280;54864;52.002;5.468;2023-07-29T01:56:02;100493.34;;;20.05;84.52
68075;BME280;54864;52.002;5.468;2023-07-29T01:57:03;100491.53;;;20.05;84.40
68075;BME280;54864;52.002;5.468;2023-07-29T01:58:05;100489.69;;;20.06;84.50
68075;BME280;54864;52.002;5.468;2023-07-29T01:59:07;100491.25;;;20.08;84.41
68075;BME280;54864;52.002;5.468;2023-07-29T02:00:10;100483.50;;;20.05;84.89
68075;BME280;54864;52.002;5.468;2023-07-29T02:01:11;100486.88;;;20.07;84.50
68075;BME280;54864;52.002;5.468;2023-07-29T02:02:13;100483.47;;;19.95;85.19
68075;BME280;54864;52.002;5.468;2023-07-29T02:03:14;100484.47;;;19.94;85.80
68075;BME280;54864;52.002;5.468;2023-07-29T02:04:19;100482.34;;;19.98;85.78
68075;BME280;54864;52.002;5.468;2023-07-29T02:05:20;100485.59;;;20.02;85.74
68075;BME280;54864;52.002;5.468;2023-07-29T02:06:22;100490.41;;;20.08;85.62
68075;BME280;54864;52.002;5.468;2023-07-29T02:07:25;100491.97;;;20.10;85.54
68075;BME280;54864;52.002;5.468;2023-07-29T02:08:27;100489.56;;;20.07;86.07
68075;BME280;54864;52.002;5.468;2023-07-29T02:09:47;100483.41;;;20.16;85.80
68075;BME280;54864;52.002;5.468;2023-07-29T02:10:59;100493.84;;;20.19;85.75
68075;BME280;54864;52.002;5.468;2023-07-29T02:12:09;100486.50;;;20.21;85.70
68075;BME280;54864;52.002;5.468;2023-07-29T02:13:10;100490.03;;;20.22;85.38
68075;BME280;54864;52.002;5.468;2023-07-29T02:14:14;100492.16;;;20.28;85.37
68075;BME280;54864;52.002;5.468;2023-07-29T02:15:35;100487.50;;;20.30;85.08
68075;BME280;54864;52.002;5.468;2023-07-29T02:16:54;100482.84;;;20.32;85.01
68075;BME280;54864;52.002;5.468;2023-07-29T02:17:56;100489.91;;;20.33;84.57
68075;BME280;54864;52.002;5.468;2023-07-29T02:18:57;100486.09;;;20.36;84.24
68075;BME280;54864;52.002;5.468;2023-07-29T02:20:17;100486.50;;;20.31;84.48
68075;BME280;54864;52.002;5.468;2023-07-29T02:21:21;100486.22;;;20.34;84.37
68075;BME280;54864;52.002;5.468;2023-07-29T02:22:23;100482.41;;;20.27;84.59
68075;BME280;54864;52.002;5.468;2023-07-29T02:23:23;100484.69;;;20.32;84.22
68075;BME280;54864;52.002;5.468;2023-07-29T02:24:25;100481.88;;;20.33;84.11
68075;BME280;54864;52.002;5.468;2023-07-29T02:25:26;100480.16;;;20.32;83.93
68075;BME280;54864;52.002;5.468;2023-07-29T02:26:29;100482.69;;;20.34;83.52
68075;BME280;54864;52.002;5.468;2023-07-29T02:27:49;100486.94;;;20.36;82.85
68075;BME280;54864;52.002;5.468;2023-07-29T02:28:50;100487.22;;;20.33;82.84
68075;BME280;54864;52.002;5.468;2023-07-29T02:30:11;100490.44;;;20.27;83.44
68075;BME280;54864;52.002;5.468;2023-07-29T02:31:15;100487.34;;;20.22;83.22
68075;BME280;54864;52.002;5.468;2023-07-29T02:32:18;100485.34;;;20.14;83.62
68075;BME280;54864;52.002;5.468;2023-07-29T02:33:19;100492.38;;;20.15;83.90
68075;BME280;54864;52.002;5.468;2023-07-29T02:34:21;100480.97;;;20.13;84.19
68075;BME280;54864;52.002;5.468;2023-07-29T02:35:22;100478.03;;;20.16;83.96
68075;BME280;54864;52.002;5.468;2023-07-29T02:36:33;100475.94;;;20.20;83.68
68075;BME280;54864;52.002;5.468;2023-07-29T02:37:52;100473.13;;;20.21;83.59
68075;BME280;54864;52.002;5.468;2023-07-29T02:38:54;100479.13;;;20.04;84.00
68075;BME280;54864;52.002;5.468;2023-07-29T02:40:13;100467.72;;;20.12;83.76
68075;BME280;54864;52.002;5.468;2023-07-29T02:41:21;100466.44;;;20.06;83.53
68075;BME280;54864;52.002;5.468;2023-07-29T02:42:23;100475.59;;;20.04;83.82
68075;BME280;54864;52.002;5.468;2023-07-29T02:43:25;100470.53;;;20.10;83.44
68075;BME280;54864;52.002;5.468;2023-07-29T02:44:44;100472.94;;;20.13;83.37
68075;BME280;54864;52.002;5.468;2023-07-29T02:45:46;100473.66;;;20.15;82.97
68075;BME280;54864;52.002;5.468;2023-07-29T02:46:47;100472.41;;;20.19;82.48
68075;BME280;54864;52.002;5.468;2023-07-29T02:47:49;100468.28;;;20.15;82.66
68075;BME280;54864;52.002;5.468;2023-07-29T02:48:50;100471.53;;;20.09;83.01
68075;BME280;54864;52.002;5.468;2023-07-29T02:49:52;100467.72;;;20.12;82.56
68075;BME280;54864;52.002;5.468;2023-07-29T02:50:58;100461.25;;;20.05;82.64
68075;BME280;54864;52.002;5.468;2023-07-29T02:51:59;100468.69;;;20.01;82.60
68075;BME280;54864;52.002;5.468;2023-07-29T02:53:10;100462.09;;;20.05;82.39
68075;BME280;54864;52.002;5.468;2023-07-29T02:54:10;100460.97;;;20.08;82.29
68075;BME280;54864;52.002;5.468;2023-07-29T02:55:12;100457.44;;;20.07;82.16
68075;BME280;54864;52.002;5.468;2023-07-29T02:56:13;100462.22;;;20.04;82.40
68075;BME280;54864;52.002;5.468;2023-07-29T02:57:35;100463.63;;;20.08;81.69
68075;BME280;54864;52.002;5.468;2023-07-29T02:58:55;100469.28;;;20.05;81.78
68075;BME280;54864;52.002;5.468;2023-07-29T02:59:56;100464.06;;;20.03;81.71
68075;BME280;54864;52.002;5.468;2023-07-29T03:01:00;100475.47;;;19.95;81.71
68075;BME280;54864;52.002;5.468;2023-07-29T03:02:02;100477.00;;;19.98;81.77
68075;BME280;54864;52.002;5.468;2023-07-29T03:03:07;100477.84;;;19.99;81.79
68075;BME280;54864;52.002;5.468;2023-07-29T03:04:07;100462.22;;;19.94;81.54
68075;BME280;54864;52.002;5.468;2023-07-29T03:05:09;100474.34;;;19.98;81.47
68075;BME280;54864;52.002;5.468;2023-07-29T03:06:13;100480.53;;;19.99;81.31
68075;BME280;54864;52.002;5.468;2023-07-29T03:07:15;100474.34;;;19.98;80.95
68075;BME280;54864;52.002;5.468;2023-07-29T03:08:16;100468.41;;;19.94;81.45
68075;BME280;54864;52.002;5.468;2023-07-29T03:09:18;100455.16;;;19.93;81.71
68075;BME280;54864;52.002;5.468;2023-07-29T03:10:19;100456.16;;;19.92;81.61
68075;BME280;54864;52.002;5.468;2023-07-29T03:11:22;100459.69;;;19.92;81.65
68075;BME280;54864;52.002;5.468;2023-07-29T03:12:36;100452.06;;;19.88;81.93
68075;BME280;54864;52.002;5.468;2023-07-29T03:13:57;100454.47;;;19.91;81.45
68075;BME280;54864;52.002;5.468;2023-07-29T03:14:58;100463.59;;;19.88;81.28
68075;BME280;54864;52.002;5.468;2023-07-29T03:16:05;100458.94;;;19.81;81.96
68075;BME280;54864;52.002;5.468;2023-07-29T03:17:08;100461.22;;;19.85;81.60
68075;BME280;54864;52.002;5.468;2023-07-29T03:18:13;100453.31;;;19.84;81.77
68075;BME280;54864;52.002;5.468;2023-07-29T03:19:13;100456.00;;;19.84;81.44
68075;BME280;54864;52.002;5.468;2023-07-29T03:20:15;100457.56;;;19.86;81.33
68075;BME280;54864;52.002;5.468;2023-07-29T03:21:18;100451.34;;;19.86;81.23
68075;BME280;54864;52.002;5.468;2023-07-29T03:22:28;100460.09;;;19.88;81.19
68075;BME280;54864;52.002;5.468;2023-07-29T03:23:48;100462.91;;;19.86;81.30
68075;BME280;54864;52.002;5.468;2023-07-29T03:25:05;100462.91;;;19.86;80.89
68075;BME280;54864;52.002;5.468;2023-07-29T03:26:06;100462.75;;;19.78;80.87
68075;BME280;54864;52.002;5.468;2023-07-29T03:27:11;100455.97;;;19.74;81.19
68075;BME280;54864;52.002;5.468;2023-07-29T03:28:32;100456.25;;;19.71;81.39
68075;BME280;54864;52.002;5.468;2023-07-29T03:29:49;100463.00;;;19.66;81.70
68075;BME280;54864;52.002;5.468;2023-07-29T03:30:53;100467.38;;;19.67;81.70
68075;BME280;54864;52.002;5.468;2023-07-29T03:32:14;100469.50;;;19.73;81.42
68075;BME280;54864;52.002;5.468;2023-07-29T03:33:25;100466.09;;;19.71;81.64
68075;BME280;54864;52.002;5.468;2023-07-29T03:34:27;100463.56;;;19.69;81.56
68075;BME280;54864;52.002;5.468;2023-07-29T03:35:30;100462.59;;;19.70;81.25
68075;BME280;54864;52.002;5.468;2023-07-29T03:36:51;100466.53;;;19.66;81.29
68075;BME280;54864;52.002;5.468;2023-07-29T03:37:53;100460.72;;;19.61;81.34
68075;BME280;54864;52.002;5.468;2023-07-29T03:38:54;100462.44;;;19.62;81.60
68075;BME280;54864;52.002;5.468;2023-07-29T03:39:56;100464.25;;;19.61;81.70
68075;BME280;54864;52.002;5.468;2023-07-29T03:41:15;100462.00;;;19.67;81.59
68075;BME280;54864;52.002;5.468;2023-07-29T03:42:17;100465.41;;;19.69;81.00
68075;BME280;54864;52.002;5.468;2023-07-29T03:43:38;100462.00;;;19.67;81.28
68075;BME280;54864;52.002;5.468;2023-07-29T03:44:46;100470.84;;;19.57;81.25
68075;BME280;54864;52.002;5.468;2023-07-29T03:45:55;100470.16;;;19.55;81.45
68075;BME280;54864;52.002;5.468;2023-07-29T03:46:57;100470.59;;;19.60;81.20
68075;BME280;54864;52.002;5.468;2023-07-29T03:48:01;100473.25;;;19.60;80.94
68075;BME280;54864;52.002;5.468;2023-07-29T03:49:03;100469.47;;;19.63;81.10
68075;BME280;54864;52.002;5.468;2023-07-29T03:50:05;100473.13;;;19.62;81.18
68075;BME280;54864;52.002;5.468;2023-07-29T03:51:25;100471.72;;;19.58;80.96
68075;BME280;54864;52.002;5.468;2023-07-29T03:52:26;100468.31;;;19.56;80.84
68075;BME280;54864;52.002;5.468;2023-07-29T03:53:46;100471.25;;;19.53;80.84
68075;BME280;54864;52.002;5.468;2023-07-29T03:54:53;100469.91;;;19.47;81.32
68075;BME280;54864;52.002;5.468;2023-07-29T03:56:13;100462.75;;;19.48;81.40
68075;BME280;54864;52.002;5.468;2023-07-29T03:57:14;100461.44;;;19.42;81.48
68075;BME280;54864;52.002;5.468;2023-07-29T03:58:16;100463.84;;;19.45;81.44
68075;BME280;54864;52.002;5.468;2023-07-29T03:59:37;100471.59;;;19.48;81.30
68075;BME280;54864;52.002;5.468;2023-07-29T04:00:39;100472.44;;;19.49;81.16
68075;BME280;54864;52.002;5.468;2023-07-29T04:01:39;100478.78;;;19.48;80.90
68075;BME280;54864;52.002;5.468;2023-07-29T04:02:42;100470.91;;;19.46;81.19
68075;BME280;54864;52.002;5.468;2023-07-29T04:04:01;100485.81;;;19.49;81.15
68075;BME280;54864;52.002;5.468;2023-07-29T04:05:04;100481.72;;;19.45;80.92
68075;BME280;54864;52.002;5.468;2023-07-29T04:06:10;100483.25;;;19.38;80.89
68075;BME280;54864;52.002;5.468;2023-07-29T04:07:12;100482.25;;;19.39;80.64
68075;BME280;54864;52.002;5.468;2023-07-29T04:08:13;100475.09;;;19.39;80.82
68075;BME280;54864;52.002;5.468;2023-07-29T04:09:15;100479.28;;;19.32;80.59
68075;BME280;54864;52.002;5.468;2023-07-29T04:10:21;100471.19;;;19.13;80.99
68075;BME280;54864;52.002;5.468;2023-07-29T04:11:24;100474.03;;;19.21;80.73
68075;BME280;54864;52.002;5.468;2023-07-29T04:12:36;100462.75;;;19.17;81.41
68075;BME280;54864;52.002;5.468;2023-07-29T04:13:57;100467.38;;;19.15;81.50
68075;BME280;54864;52.002;5.468;2023-07-29T04:14:59;100472.03;;;19.13;80.61
68075;BME280;54864;52.002;5.468;2023-07-29T04:16:01;100470.72;;;19.08;81.49
68075;BME280;54864;52.002;5.468;2023-07-29T04:17:08;100471.44;;;19.10;80.59
68075;BME280;54864;52.002;5.468;2023-07-29T04:18:10;100453.94;;;18.96;81.35
68075;BME280;54864;52.002;5.468;2023-07-29T04:19:11;100455.50;;;18.98;81.10
68075;BME280;54864;52.002;5.468;2023-07-29T04:20:13;100460.00;;;18.98;82.04
68075;BME280;54864;52.002;5.468;2023-07-29T04:21:14;100451.88;;;19.09;81.74
68075;BME280;54864;52.002;5.468;2023-07-29T04:22:16;100448.09;;;19.12;81.86
68075;BME280;54864;52.002;5.468;2023-07-29T04:23:17;100452.66;;;19.21;81.16
68075;BME280;54864;52.002;5.468;2023-07-29T04:24:18;100443.97;;;18.98;81.61
68075;BME280;54864;52.002;5.468;2023-07-29T04:25:21;100446.69;;;19.08;81.65
68075;BME280;54864;52.002;5.468;2023-07-29T04:26:25;100448.09;;;19.12;81.37
68075;BME280;54864;52.002;5.468;2023-07-29T04:27:27;100454.75;;;19.17;81.43
68075;BME280;54864;52.002;5.468;2023-07-29T04:28:46;100451.94;;;19.19;81.31
68075;BME280;54864;52.002;5.468;2023-07-29T04:29:48;100462.22;;;19.23;81.19
68075;BME280;54864;52.002;5.468;2023-07-29T04:30:51;100467.16;;;19.28;80.49
68075;BME280;54864;52.002;5.468;2023-07-29T04:31:53;100463.19;;;19.22;80.92
68075;BME280;54864;52.002;5.468;2023-07-29T04:33:12;100452.72;;;19.10;80.33
68075;BME280;54864;52.002;5.468;2023-07-29T04:34:15;100465.03;;;19.22;80.82
68075;BME280;54864;52.002;5.468;2023-07-29T04:35:21;100460.69;;;19.30;80.47
68075;BME280;54864;52.002;5.468;2023-07-29T04:36:23;100458.44;;;19.26;80.94
68075;BME280;54864;52.002;5.468;2023-07-29T04:37:24;100455.63;;;19.27;81.00
68075;BME280;54864;52.002;5.468;2023-07-29T04:38:37;100460.13;;;19.27;80.98
68075;BME280;54864;52.002;5.468;2023-07-29T04:39:56;100462.41;;;19.31;80.68
68075;BME280;54864;52.002;5.468;2023-07-29T04:40:58;100473.09;;;19.31;80.01
68075;BME280;54864;52.002;5.468;2023-07-29T04:42:01;100475.19;;;19.28;79.86
68075;BME280;54864;52.002;5.468;2023-07-29T04:43:03;100474.22;;;19.29;80.08
68075;BME280;54864;52.002;5.468;2023-07-29T04:44:07;100478.41;;;19.22;80.56
68075;BME280;54864;52.002;5.468;2023-07-29T04:45:09;100477.41;;;19.23;80.33
68075;BME280;54864;52.002;5.468;2023-07-29T04:46:11;100487.13;;;19.24;80.46
68075;BME280;54864;52.002;5.468;2023-07-29T04:47:13;100487.00;;;19.25;80.87
68075;BME280;54864;52.002;5.468;2023-07-29T04:48:14;100491.22;;;19.28;80.82
68075;BME280;54864;52.002;5.468;2023-07-29T04:49:15;100484.91;;;19.29;80.49
68075;BME280;54864;52.002;5.468;2023-07-29T04:50:16;100477.47;;;19.32;80.12
68075;BME280;54864;52.002;5.468;2023-07-29T04:51:18;100475.53;;;19.14;80.13
68075;BME280;54864;52.002;5.468;2023-07-29T04:52:19;100476.44;;;19.24;79.90
68075;BME280;54864;52.002;5.468;2023-07-29T04:53:24;100474.47;;;19.26;79.87
68075;BME280;54864;52.002;5.468;2023-07-29T04:54:25;100473.50;;;19.27;80.04
68075;BME280;54864;52.002;5.468;2023-07-29T04:55:27;100484.06;;;19.28;80.31
68075;BME280;54864;52.002;5.468;2023-07-29T04:56:33;100481.34;;;19.19;79.90
68075;BME280;54864;52.002;5.468;2023-07-29T04:57:35;100481.91;;;19.22;80.36
68075;BME280;54864;52.002;5.468;2023-07-29T04:58:39;100479.69;;;19.27;80.75
68075;BME280;54864;52.002;5.468;2023-07-29T04:59:40;100476.69;;;19.21;80.29
68075;BME280;54864;52.002;5.468;2023-07-29T05:00:41;100484.53;;;19.13;80.83
68075;BME280;54864;52.002;5.468;2023-07-29T05:01:44;100484.59;;;19.22;80.86
68075;BME280;54864;52.002;5.468;2023-07-29T05:02:54;100486.00;;;19.26;79.95
68075;BME280;54864;52.002;5.468;2023-07-29T05:04:15;100490.91;;;19.21;80.28
68075;BME280;54864;52.002;5.468;2023-07-29T05:05:18;100498.25;;;19.29;81.01
68075;BME280;54864;52.002;5.468;2023-07-29T05:06:20;100489.53;;;19.27;80.69
68075;BME280;54864;52.002;5.468;2023-07-29T05:07:21;100498.25;;;19.29;80.42
68075;BME280;54864;52.002;5.468;2023-07-29T05:08:22;100497.00;;;19.33;80.29
68075;BME280;54864;52.002;5.468;2023-07-29T05:09:24;100495.72;;;19.27;80.05
68075;BME280;54864;52.002;5.468;2023-07-29T05:10:44;100496.22;;;19.12;79.97
68075;BME280;54864;52.002;5.468;2023-07-29T05:12:08;100502.13;;;19.15;80.47
68075;BME280;54864;52.002;5.468;2023-07-29T05:13:12;100500.72;;;19.11;80.24
68075;BME280;54864;52.002;5.468;2023-07-29T05:14:14;100494.97;;;19.16;79.75
68075;BME280;54864;52.002;5.468;2023-07-29T05:15:15;100485.47;;;19.02;80.48
68075;BME280;54864;52.002;5.468;2023-07-29T05:16:16;100485.41;;;18.92;80.14
68075;BME280;54864;52.002;5.468;2023-07-29T05:17:19;100493.81;;;19.09;80.22
68075;BME280;54864;52.002;5.468;2023-07-29T05:18:20;100497.06;;;19.12;80.56
68075;BME280;54864;52.002;5.468;2023-07-29T05:19:37;100496.78;;;19.15;80.52
68075;BME280;54864;52.002;5.468;2023-07-29T05:20:38;100492.81;;;19.10;78.97
68075;BME280;54864;52.002;5.468;2023-07-29T05:21:46;100493.41;;;19.13;80.08
68075;BME280;54864;52.002;5.468;2023-07-29T05:22:49;100502.31;;;19.23;80.37
68075;BME280;54864;52.002;5.468;2023-07-29T05:23:53;100500.66;;;19.32;80.52
68075;BME280;54864;52.002;5.468;2023-07-29T05:25:13;100506.88;;;19.32;79.12
68075;BME280;54864;52.002;5.468;2023-07-29T05:26:15;100501.66;;;19.31;79.70
68075;BME280;54864;52.002;5.468;2023-07-29T05:27:16;100503.88;;;19.26;80.07
68075;BME280;54864;52.002;5.468;2023-07-29T05:28:18;100510.38;;;19.33;79.64
68075;BME280;54864;52.002;5.468;2023-07-29T05:29:18;100497.38;;;19.19;79.40
68075;BME280;54864;52.002;5.468;2023-07-29T05:30:20;100505.84;;;19.24;79.04
68075;BME280;54864;52.002;5.468;2023-07-29T05:31:21;100500.09;;;19.28;79.35
68075;BME280;54864;52.002;5.468;2023-07-29T05:32:25;100509.00;;;19.39;79.28
68075;BME280;54864;52.002;5.468;2023-07-29T05:33:26;100502.66;;;19.40;79.23
68075;BME280;54864;52.002;5.468;2023-07-29T05:34:46;100507.72;;;19.54;78.72
68075;BME280;54864;52.002;5.468;2023-07-29T05:35:50;100501.56;;;19.63;77.87
68075;BME280;54864;52.002;5.468;2023-07-29T05:36:51;100497.06;;;19.63;77.28
68075;BME280;54864;52.002;5.468;2023-07-29T05:38:11;100493.13;;;19.68;77.17
68075;BME280;54864;52.002;5.468;2023-07-29T05:39:31;100507.22;;;19.70;78.54
68075;BME280;54864;52.002;5.468;2023-07-29T05:40:33;100507.66;;;19.75;77.33